Time;durP1;ratioP1;P1;durP2;ratioP2;P2;SDS_P1;SDS_P2;PMS_P1;PMS_P2;Temp;Humidity;BMP_temperature;BMP_pressure;BME280_temperature;BME280_humidity;BME280_pressure;Samples;Min_cycle;Max_cycle;Signal;HPM_P1;HPM_P2
2023/07/31 00:01:40;;;;;;;6.22;2.38;;;;;;;;;;5021221;28;20029;-79
2023/07/31 00:04:05;;;;;;;8.55;1.50;;;;;;;;;;5023221;28;20022;-78
2023/07/31 00:06:31;;;;;;;9.15;1.73;;;;;;;;;;5023609;28;20069;-79
2023/07/31 00:08:56;;;;;;;8.30;1.63;;;;;;;;;;5024070;28;20062;-78
2023/07/31 00:11:22;;;;;;;6.40;1.52;;;;;;;;;;5025278;28;20366;-78
2023/07/31 00:13:48;;;;;;;5.35;1.60;;;;;;;;;;5024079;28;20037;-79
2023/07/31 00:16:13;;;;;;;6.85;1.50;;;;;;;;;;5026213;28;20026;-78
2023/07/31 00:18:39;;;;;;;6.35;1.98;;;;;;;;;;5026747;28;20029;-78
2023/07/31 00:21:04;;;;;;;6.15;1.63;;;;;;;;;;5040332;28;20052;-78
2023/07/31 00:23:30;;;;;;;6.43;1.75;;;;;;;;;;5022476;28;20094;-77
2023/07/31 00:25:55;;;;;;;5.78;1.38;;;;;;;;;;5021481;28;20038;-77
2023/07/31 00:28:21;;;;;;;9.52;1.85;;;;;;;;;;5021752;28;20045;-79
2023/07/31 00:30:46;;;;;;;7.15;1.65;;;;;;;;;;5019852;28;20056;-78
2023/07/31 00:33:12;;;;;;;11.77;1.90;;;;;;;;;;5016836;28;20033;-79
2023/07/31 00:35:38;;;;;;;4.43;1.30;;;;;;;;;;5003007;28;20485;-78
2023/07/31 00:38:03;;;;;;;7.22;1.67;;;;;;;;;;5018965;28;20072;-78
2023/07/31 00:40:29;;;;;;;4.95;1.40;;;;;;;;;;5017943;28;20374;-78
2023/07/31 00:42:54;;;;;;;6.65;1.73;;;;;;;;;;5016720;28;20037;-78
2023/07/31 00:45:22;;;;;;;10.82;2.30;;;;;;;;;;5013774;28;20026;-78
2023/07/31 00:47:48;;;;;;;9.52;1.60;;;;;;;;;;5015411;28;20040;-77
2023/07/31 00:50:14;;;;;;;6.20;1.52;;;;;;;;;;4981327;28;20489;-77
2023/07/31 00:52:39;;;;;;;5.82;1.30;;;;;;;;;;4997103;28;20034;-79
2023/07/31 00:55:05;;;;;;;8.75;1.52;;;;;;;;;;5012487;28;20393;-79
2023/07/31 00:57:31;;;;;;;8.75;1.40;;;;;;;;;;5012520;28;20026;-78
2023/07/31 00:59:57;;;;;;;7.78;1.80;;;;;;;;;;5013388;28;20026;-78
2023/07/31 01:02:23;;;;;;;5.38;1.60;;;;;;;;;;5031526;28;20076;-78
2023/07/31 01:04:48;;;;;;;9.02;1.77;;;;;;;;;;5019688;28;20102;-77
2023/07/31 01:07:20;;;;;;;8.05;1.40;;;;;;;;;;5019433;28;20038;-77
2023/07/31 01:09:52;;;;;;;7.47;1.70;;;;;;;;;;5002357;28;20069;-77
2023/07/31 01:12:22;;;;;;;4.88;1.60;;;;;;;;;;5002232;28;20497;-79
2023/07/31 01:14:51;;;;;;;6.65;1.40;;;;;;;;;;5017768;28;20037;-78
2023/07/31 01:17:17;;;;;;;6.70;1.58;;;;;;;;;;5017614;28;20037;-78
2023/07/31 01:19:42;;;;;;;4.97;1.45;;;;;;;;;;5018235;28;20461;-77
2023/07/31 01:22:16;;;;;;;7.57;1.40;;;;;;;;;;5002239;28;20041;-79
2023/07/31 01:24:52;;;;;;;7.65;1.63;;;;;;;;;;5017783;28;20100;-78
2023/07/31 01:27:23;;;;;;;8.30;1.70;;;;;;;;;;5017603;28;20029;-79
2023/07/31 01:29:48;;;;;;;4.82;1.50;;;;;;;;;;5017401;28;20122;-77
2023/07/31 01:32:14;;;;;;;7.15;2.03;;;;;;;;;;5018014;28;20461;-79
2023/07/31 01:34:41;;;;;;;5.80;1.67;;;;;;;;;;4984512;28;20457;-77
2023/07/31 01:37:06;;;;;;;7.60;1.75;;;;;;;;;;5016500;28;20092;-77
2023/07/31 01:39:32;;;;;;;3.88;1.42;;;;;;;;;;5016360;28;20433;-77
2023/07/31 01:41:57;;;;;;;16.10;2.08;;;;;;;;;;5014812;28;20440;-78
2023/07/31 01:44:23;;;;;;;4.18;1.50;;;;;;;;;;5015850;28;20480;-78
2023/07/31 01:46:48;;;;;;;7.50;1.42;;;;;;;;;;5000718;28;20477;-78
2023/07/31 01:49:14;;;;;;;6.40;1.60;;;;;;;;;;5017805;28;20045;-77
2023/07/31 01:51:40;;;;;;;4.82;1.75;;;;;;;;;;5001151;28;20030;-77
2023/07/31 01:54:07;;;;;;;5.88;1.55;;;;;;;;;;5034030;28;20030;-79
2023/07/31 01:56:32;;;;;;;7.20;1.50;;;;;;;;;;5017030;28;20052;-77
2023/07/31 01:58:58;;;;;;;5.65;1.50;;;;;;;;;;5018817;28;20030;-78
2023/07/31 02:01:24;;;;;;;5.85;1.80;;;;;;;;;;5018119;28;20029;-78
2023/07/31 02:03:50;;;;;;;8.02;1.60;;;;;;;;;;4986645;28;20052;-78
2023/07/31 02:06:15;;;;;;;5.68;1.60;;;;;;;;;;5004158;28;20476;-78
2023/07/31 02:08:41;;;;;;;6.32;1.58;;;;;;;;;;5020423;28;20045;-78
2023/07/31 02:11:06;;;;;;;7.15;2.10;;;;;;;;;;5004382;28;20061;-78
2023/07/31 02:13:32;;;;;;;6.55;1.48;;;;;;;;;;5013720;28;20398;-78
2023/07/31 02:15:57;;;;;;;5.40;1.65;;;;;;;;;;5016250;28;20041;-78
2023/07/31 02:18:25;;;;;;;7.50;1.65;;;;;;;;;;5021795;28;20113;-77
2023/07/31 02:20:51;;;;;;;8.57;1.75;;;;;;;;;;5024640;28;20050;-78
2023/07/31 02:23:17;;;;;;;8.20;1.65;;;;;;;;;;5040527;28;20499;-77
2023/07/31 02:25:42;;;;;;;6.57;1.55;;;;;;;;;;5023204;28;20504;-77
2023/07/31 02:28:08;;;;;;;5.55;1.60;;;;;;;;;;5023758;28;20040;-76
2023/07/31 02:30:34;;;;;;;6.97;1.75;;;;;;;;;;5007157;28;20570;-77
2023/07/31 02:32:59;;;;;;;8.35;1.70;;;;;;;;;;5005033;28;20030;-76
2023/07/31 02:35:25;;;;;;;7.20;1.90;;;;;;;;;;5020495;28;20038;-78
2023/07/31 02:37:51;;;;;;;7.93;1.77;;;;;;;;;;5022100;28;20503;-77
2023/07/31 02:40:18;;;;;;;6.80;1.75;;;;;;;;;;5005274;28;20022;-76
2023/07/31 02:42:44;;;;;;;5.60;1.58;;;;;;;;;;5019886;28;20073;-77
2023/07/31 02:45:11;;;;;;;7.80;1.50;;;;;;;;;;5001260;28;20092;-80
2023/07/31 02:47:36;;;;;;;4.82;1.90;;;;;;;;;;5002144;28;20038;-78
2023/07/31 02:50:05;;;;;;;4.90;1.50;;;;;;;;;;5015527;28;20481;-79
2023/07/31 02:52:31;;;;;;;6.82;1.38;;;;;;;;;;4998491;28;20030;-78
2023/07/31 02:54:57;;;;;;;3.53;1.50;;;;;;;;;;5018261;28;20037;-77
2023/07/31 02:57:23;;;;;;;6.30;1.77;;;;;;;;;;5021062;28;20029;-79
2023/07/31 02:59:48;;;;;;;4.75;1.60;;;;;;;;;;5005666;28;20490;-79
2023/07/31 03:02:14;;;;;;;3.42;1.45;;;;;;;;;;5040253;28;20022;-78
2023/07/31 03:04:40;;;;;;;5.43;1.60;;;;;;;;;;5023165;28;20030;-78
2023/07/31 03:07:06;;;;;;;5.30;1.90;;;;;;;;;;5024207;28;20545;-78
2023/07/31 03:09:31;;;;;;;5.47;1.50;;;;;;;;;;5007629;28;20092;-77
2023/07/31 03:11:57;;;;;;;6.18;1.88;;;;;;;;;;5025245;28;20029;-78
2023/07/31 03:14:22;;;;;;;6.88;1.80;;;;;;;;;;5027020;28;20401;-77
2023/07/31 03:16:48;;;;;;;5.95;1.45;;;;;;;;;;5041286;28;20022;-78
2023/07/31 03:19:14;;;;;;;4.45;1.50;;;;;;;;;;5023413;28;20030;-79
2023/07/31 03:21:40;;;;;;;7.93;1.52;;;;;;;;;;5021767;28;20048;-77
2023/07/31 03:24:06;;;;;;;6.40;1.70;;;;;;;;;;5007483;28;20033;-78
2023/07/31 03:26:32;;;;;;;6.35;1.73;;;;;;;;;;5023622;28;20504;-79
2023/07/31 03:28:57;;;;;;;10.05;2.50;;;;;;;;;;5024367;28;20623;-78
2023/07/31 03:31:23;;;;;;;5.03;1.67;;;;;;;;;;5024250;28;20038;-77
2023/07/31 03:33:49;;;;;;;4.38;1.33;;;;;;;;;;5006155;28;20373;-77
2023/07/31 03:36:15;;;;;;;5.90;2.00;;;;;;;;;;5006793;28;20179;-78
2023/07/31 03:38:41;;;;;;;4.28;1.50;;;;;;;;;;5018969;28;20481;-76
2023/07/31 03:41:06;;;;;;;6.15;1.55;;;;;;;;;;4999062;28;20022;-78
2023/07/31 03:43:33;;;;;;;4.47;1.52;;;;;;;;;;4983302;28;20029;-77
2023/07/31 03:46:00;;;;;;;6.28;1.60;;;;;;;;;;4985229;28;20037;-78
2023/07/31 03:48:25;;;;;;;4.45;1.98;;;;;;;;;;5018664;28;20037;-77
2023/07/31 03:50:51;;;;;;;6.90;1.92;;;;;;;;;;5002430;28;20095;-77
2023/07/31 03:53:17;;;;;;;5.65;1.50;;;;;;;;;;5019530;28;20026;-77
2023/07/31 03:55:42;;;;;;;5.07;1.60;;;;;;;;;;5018060;28;20061;-79
2023/07/31 03:58:08;;;;;;;8.15;2.03;;;;;;;;;;5019179;28;20033;-77
2023/07/31 04:00:33;;;;;;;9.30;2.15;;;;;;;;;;5019799;28;20085;-78
2023/07/31 04:02:59;;;;;;;6.57;1.85;;;;;;;;;;5019000;28;20033;-77
2023/07/31 04:05:24;;;;;;;5.78;1.60;;;;;;;;;;5003773;28;20061;-78
2023/07/31 04:07:50;;;;;;;5.45;1.70;;;;;;;;;;5021062;28;20044;-77
2023/07/31 04:10:16;;;;;;;6.55;1.95;;;;;;;;;;5021899;28;20026;-77
2023/07/31 04:12:41;;;;;;;10.52;1.83;;;;;;;;;;5021196;28;20386;-77
2023/07/31 04:15:07;;;;;;;5.30;1.67;;;;;;;;;;5003792;28;20030;-76
2023/07/31 04:17:32;;;;;;;8.20;1.70;;;;;;;;;;5021016;28;20022;-78
2023/07/31 04:19:58;;;;;;;10.05;1.90;;;;;;;;;;5023181;28;20026;-77
2023/07/31 04:22:24;;;;;;;6.25;1.83;;;;;;;;;;5022749;28;20546;-77
2023/07/31 04:24:49;;;;;;;5.35;1.88;;;;;;;;;;5022907;28;20493;-76
2023/07/31 04:27:15;;;;;;;9.63;2.50;;;;;;;;;;5005998;28;20034;-76
2023/07/31 04:29:42;;;;;;;3.47;1.48;;;;;;;;;;5039262;28;20041;-78
2023/07/31 04:32:08;;;;;;;5.18;1.95;;;;;;;;;;5025118;28;20033;-78
2023/07/31 04:34:33;;;;;;;8.65;2.45;;;;;;;;;;5024588;28;20105;-78
2023/07/31 04:36:59;;;;;;;6.68;1.80;;;;;;;;;;5024678;28;20034;-78
2023/07/31 04:39:24;;;;;;;5.15;1.80;;;;;;;;;;5011212;28;20038;-77
2023/07/31 04:41:50;;;;;;;5.03;2.13;;;;;;;;;;5028152;28;20030;-77
2023/07/31 04:44:15;;;;;;;7.03;1.75;;;;;;;;;;5026932;28;20288;-78
2023/07/31 04:46:41;;;;;;;5.60;2.13;;;;;;;;;;5025410;28;20438;-77
2023/07/31 04:49:07;;;;;;;7.55;2.05;;;;;;;;;;5026507;28;20034;-77
2023/07/31 04:51:32;;;;;;;5.65;2.40;;;;;;;;;;5025698;28;20037;-78
2023/07/31 04:53:58;;;;;;;6.90;2.20;;;;;;;;;;5007799;28;20373;-78
2023/07/31 04:56:23;;;;;;;7.78;2.22;;;;;;;;;;5023684;28;20034;-79
2023/07/31 04:58:49;;;;;;;8.23;2.60;;;;;;;;;;5022963;28;20022;-77
2023/07/31 05:01:15;;;;;;;9.07;2.67;;;;;;;;;;5021435;28;20038;-77
2023/07/31 05:03:40;;;;;;;7.40;2.35;;;;;;;;;;5019417;28;20069;-78
2023/07/31 05:06:06;;;;;;;8.68;2.30;;;;;;;;;;5018065;28;20151;-77
2023/07/31 05:08:31;;;;;;;6.85;3.15;;;;;;;;;;5018168;28;20057;-77
2023/07/31 05:10:57;;;;;;;10.00;2.53;;;;;;;;;;5016860;28;20030;-76
2023/07/31 05:13:22;;;;;;;8.50;2.55;;;;;;;;;;5044806;23;20140;-76
2023/07/31 05:15:49;;;;;;;12.38;2.92;;;;;;;;;;5037513;28;20117;-75
2023/07/31 05:18:15;;;;;;;9.70;4.55;;;;;;;;;;5054635;28;20029;-74
2023/07/31 05:20:40;;;;;;;12.30;3.45;;;;;;;;;;5054105;28;20425;-75
2023/07/31 05:23:06;;;;;;;9.70;3.15;;;;;;;;;;5054411;28;20028;-75
2023/07/31 05:25:32;;;;;;;11.20;3.10;;;;;;;;;;5037839;28;20033;-75
2023/07/31 05:27:57;;;;;;;9.50;2.92;;;;;;;;;;5055425;28;20039;-74
2023/07/31 05:30:23;;;;;;;9.27;2.95;;;;;;;;;;5055347;28;20479;-75
2023/07/31 05:32:48;;;;;;;8.88;3.00;;;;;;;;;;5055436;28;20075;-75
2023/07/31 05:35:14;;;;;;;6.95;2.30;;;;;;;;;;5055019;28;20110;-76
2023/07/31 05:37:39;;;;;;;9.40;3.20;;;;;;;;;;5054090;28;20029;-76
2023/07/31 05:40:05;;;;;;;6.95;2.72;;;;;;;;;;5055823;28;20039;-74
2023/07/31 05:42:31;;;;;;;9.25;2.70;;;;;;;;;;5055100;28;20479;-74
2023/07/31 05:44:56;;;;;;;12.98;2.80;;;;;;;;;;5037051;28;20503;-74
2023/07/31 05:47:22;;;;;;;9.02;2.72;;;;;;;;;;5037123;28;20036;-75
2023/07/31 05:49:49;;;;;;;6.57;2.38;;;;;;;;;;5054668;28;20033;-75
2023/07/31 05:52:14;;;;;;;8.65;3.15;;;;;;;;;;5054988;28;20114;-76
2023/07/31 05:54:40;;;;;;;8.65;2.35;;;;;;;;;;5053357;28;20476;-75
2023/07/31 05:57:05;;;;;;;10.25;3.05;;;;;;;;;;5054607;28;20104;-74
2023/07/31 05:59:32;;;;;;;8.35;2.97;;;;;;;;;;5054893;28;20121;-74
2023/07/31 06:01:58;;;;;;;7.85;2.70;;;;;;;;;;5054617;28;20020;-76
2023/07/31 06:04:25;;;;;;;6.47;2.42;;;;;;;;;;5053064;28;20025;-75
2023/07/31 06:06:51;;;;;;;8.93;3.00;;;;;;;;;;5054195;28;20032;-75
2023/07/31 06:09:16;;;;;;;7.85;2.30;;;;;;;;;;5054610;28;20028;-75
2023/07/31 06:11:42;;;;;;;7.68;2.40;;;;;;;;;;5054483;28;20053;-76
2023/07/31 06:14:07;;;;;;;9.00;3.05;;;;;;;;;;5053191;28;20122;-75
2023/07/31 06:16:33;;;;;;;8.40;2.35;;;;;;;;;;5054309;28;20176;-75
2023/07/31 06:18:58;;;;;;;7.65;3.20;;;;;;;;;;5053398;28;20502;-75
2023/07/31 06:21:24;;;;;;;10.30;2.22;;;;;;;;;;5054482;28;20041;-75
2023/07/31 06:23:49;;;;;;;10.73;2.50;;;;;;;;;;5054448;28;20422;-75
2023/07/31 06:26:15;;;;;;;7.40;2.47;;;;;;;;;;5036912;28;20058;-74
2023/07/31 06:28:41;;;;;;;6.45;2.17;;;;;;;;;;5036969;28;20132;-74
2023/07/31 06:31:07;;;;;;;7.97;2.00;;;;;;;;;;5054810;28;20033;-75
2023/07/31 06:33:32;;;;;;;8.75;2.95;;;;;;;;;;5054272;28;20025;-75
2023/07/31 06:35:58;;;;;;;6.82;2.35;;;;;;;;;;5054074;28;20035;-75
2023/07/31 06:38:25;;;;;;;5.40;2.03;;;;;;;;;;5053733;28;20437;-74
2023/07/31 06:40:50;;;;;;;7.25;2.55;;;;;;;;;;5054556;28;20028;-75
2023/07/31 06:43:16;;;;;;;4.93;2.55;;;;;;;;;;5054857;28;20025;-76
2023/07/31 06:45:41;;;;;;;8.70;2.90;;;;;;;;;;5054137;28;20028;-75
2023/07/31 06:48:07;;;;;;;7.70;2.22;;;;;;;;;;5054084;28;20103;-75
2023/07/31 06:50:32;;;;;;;4.40;2.30;;;;;;;;;;5036465;28;20047;-74
2023/07/31 06:52:58;;;;;;;9.23;3.35;;;;;;;;;;5053029;28;20553;-75
2023/07/31 06:55:24;;;;;;;6.28;2.30;;;;;;;;;;5052554;28;20029;-76
2023/07/31 06:57:51;;;;;;;8.65;2.60;;;;;;;;;;5054173;28;20029;-75
2023/07/31 07:00:17;;;;;;;6.63;2.13;;;;;;;;;;5052327;28;20040;-76
2023/07/31 07:02:42;;;;;;;6.88;2.60;;;;;;;;;;5053055;28;20036;-75
2023/07/31 07:05:08;;;;;;;7.53;2.28;;;;;;;;;;5036866;28;20033;-75
2023/07/31 07:07:34;;;;;;;6.78;2.78;;;;;;;;;;5056375;28;20025;-75
2023/07/31 07:09:59;;;;;;;6.38;2.17;;;;;;;;;;5058683;28;20029;-74
2023/07/31 07:12:25;;;;;;;6.72;2.20;;;;;;;;;;5060343;28;20044;-74
2023/07/31 07:14:52;;;;;;;7.95;2.00;;;;;;;;;;5061118;28;20033;-75
2023/07/31 07:17:18;;;;;;;5.95;2.25;;;;;;;;;;5050520;28;20033;-75
2023/07/31 07:19:45;;;;;;;5.95;1.98;;;;;;;;;;5055091;28;20055;-74
2023/07/31 07:22:11;;;;;;;6.88;2.40;;;;;;;;;;5068926;28;20028;-75
2023/07/31 07:24:37;;;;;;;6.70;2.50;;;;;;;;;;5059220;28;20036;-74
2023/07/31 07:27:03;;;;;;;6.82;2.38;;;;;;;;;;5056281;28;20090;-75
2023/07/31 07:29:29;;;;;;;6.20;2.03;;;;;;;;;;5056601;28;20262;-74
2023/07/31 07:31:54;;;;;;;5.38;2.10;;;;;;;;;;5056485;28;20068;-75
2023/07/31 07:34:22;;;;;;;11.70;2.45;;;;;;;;;;5055631;28;20115;-76
2023/07/31 07:36:48;;;;;;;5.72;2.40;;;;;;;;;;5055623;28;20056;-75
2023/07/31 07:39:14;;;;;;;6.40;2.30;;;;;;;;;;5054984;28;20025;-75
2023/07/31 07:41:39;;;;;;;6.60;2.17;;;;;;;;;;5056982;28;20537;-75
2023/07/31 07:44:05;;;;;;;7.35;2.40;;;;;;;;;;5058783;28;20041;-74
2023/07/31 07:46:30;;;;;;;8.95;2.15;;;;;;;;;;5051791;28;20033;-76
2023/07/31 07:48:56;;;;;;;8.15;2.42;;;;;;;;;;5051594;28;20031;-77
2023/07/31 07:51:22;;;;;;;6.30;1.98;;;;;;;;;;5052605;28;20127;-76
2023/07/31 07:53:47;;;;;;;8.90;3.38;;;;;;;;;;5051285;28;20123;-76
2023/07/31 07:56:13;;;;;;;7.63;2.42;;;;;;;;;;5051153;28;20029;-76
2023/07/31 07:58:38;;;;;;;5.43;1.77;;;;;;;;;;5052491;28;20025;-76
2023/07/31 08:01:04;;;;;;;5.45;2.33;;;;;;;;;;5052568;28;20029;-75
2023/07/31 08:03:29;;;;;;;4.93;1.85;;;;;;;;;;5052514;28;20057;-75
2023/07/31 08:06:01;;;;;;;4.57;1.80;;;;;;;;;;5052356;28;20432;-77
2023/07/31 08:08:27;;;;;;;6.05;2.10;;;;;;;;;;5051369;28;20028;-76
2023/07/31 08:10:53;;;;;;;5.57;1.95;;;;;;;;;;5051372;28;20033;-76
2023/07/31 08:13:18;;;;;;;8.45;2.13;;;;;;;;;;5050985;28;20557;-77
2023/07/31 08:15:44;;;;;;;7.28;2.47;;;;;;;;;;5050600;28;20033;-75
2023/07/31 08:18:09;;;;;;;7.05;2.22;;;;;;;;;;5052066;28;20025;-77
2023/07/31 08:20:35;;;;;;;9.50;2.28;;;;;;;;;;5052082;28;20472;-77
2023/07/31 08:23:00;;;;;;;6.50;2.22;;;;;;;;;;5052244;28;20036;-76
2023/07/31 08:25:26;;;;;;;7.45;2.42;;;;;;;;;;5050794;28;20044;-76
2023/07/31 08:27:52;;;;;;;8.82;2.90;;;;;;;;;;5052089;28;20029;-77
2023/07/31 08:30:18;;;;;;;5.80;2.00;;;;;;;;;;5051896;28;20115;-76
2023/07/31 08:32:44;;;;;;;6.38;2.05;;;;;;;;;;5050928;28;20400;-76
2023/07/31 08:35:09;;;;;;;6.18;2.40;;;;;;;;;;5051704;28;20056;-75
2023/07/31 08:37:35;;;;;;;5.43;2.25;;;;;;;;;;5044287;28;20025;-75
2023/07/31 08:40:00;;;;;;;6.85;2.00;;;;;;;;;;5047245;28;20033;-77
2023/07/31 08:42:26;;;;;;;5.30;2.20;;;;;;;;;;5051929;28;20099;-94
2023/07/31 08:44:52;;;;;;;17.35;6.85;;;;;;;;;;5003073;28;20033;-92
2023/07/31 08:47:18;;;;;;;7.18;2.17;;;;;;;;;;5034244;28;20373;-94
2023/07/31 08:49:46;;;;;;;5.35;2.28;;;;;;;;;;5007403;28;20117;-95
2023/07/31 08:52:14;;;;;;;11.55;3.10;;;;;;;;;;5022568;28;20029;-76
2023/07/31 08:54:40;;;;;;;6.90;2.22;;;;;;;;;;5030431;28;20032;-77
2023/07/31 08:57:06;;;;;;;8.32;2.55;;;;;;;;;;5033045;28;20029;-78
2023/07/31 08:59:34;;;;;;;9.52;2.20;;;;;;;;;;5050208;28;20036;-78
2023/07/31 09:02:03;;;;;;;8.20;2.10;;;;;;;;;;5051521;28;20110;-76
2023/07/31 09:04:30;;;;;;;6.28;2.13;;;;;;;;;;5050250;28;20032;-79
2023/07/31 09:06:59;;;;;;;4.25;2.17;;;;;;;;;;5051170;28;20035;-77
2023/07/31 09:09:25;;;;;;;8.23;2.03;;;;;;;;;;5030439;28;20029;-78
2023/07/31 09:11:51;;;;;;;7.55;2.17;;;;;;;;;;5030456;28;20365;-77
2023/07/31 09:14:17;;;;;;;7.10;2.40;;;;;;;;;;5031078;28;20029;-78
2023/07/31 09:16:53;;;;;;;8.93;2.50;;;;;;;;;;5032094;28;20092;-78
2023/07/31 09:19:45;;;;;;;5.07;2.10;;;;;;;;;;5030874;28;20029;-77
2023/07/31 09:22:11;;;;;;;9.15;2.08;;;;;;;;;;5026641;28;20036;-77
2023/07/31 09:24:36;;;;;;;5.80;2.55;;;;;;;;;;5035153;28;20113;-77
2023/07/31 09:27:02;;;;;;;5.90;2.58;;;;;;;;;;5035399;28;20377;-77
2023/07/31 09:29:28;;;;;;;9.23;2.50;;;;;;;;;;5018068;28;20080;-81
2023/07/31 09:31:54;;;;;;;5.72;2.17;;;;;;;;;;5040208;28;20025;-77
2023/07/31 09:34:20;;;;;;;7.75;2.10;;;;;;;;;;5053722;28;20037;-78
2023/07/31 09:36:47;;;;;;;6.90;2.10;;;;;;;;;;5054808;28;20503;-78
2023/07/31 09:39:13;;;;;;;10.77;2.47;;;;;;;;;;5055227;28;20033;-79
2023/07/31 09:41:40;;;;;;;8.95;2.50;;;;;;;;;;5055825;28;20166;-76
2023/07/31 09:44:05;;;;;;;7.93;2.20;;;;;;;;;;5054692;28;20036;-80
2023/07/31 09:46:31;;;;;;;9.55;3.40;;;;;;;;;;5054672;28;20040;-78
2023/07/31 09:49:23;;;;;;;9.02;2.35;;;;;;;;;;5058820;28;20056;-77
2023/07/31 09:51:48;;;;;;;7.20;2.28;;;;;;;;;;5039429;28;20049;-76
2023/07/31 09:54:15;;;;;;;10.32;2.10;;;;;;;;;;5063448;28;20036;-76
2023/07/31 09:56:45;;;;;;;7.78;2.60;;;;;;;;;;5064998;28;20024;-77
2023/07/31 09:59:15;;;;;;;6.18;2.08;;;;;;;;;;5064183;28;20082;-78
2023/07/31 10:01:41;;;;;;;7.40;2.53;;;;;;;;;;5062404;28;20029;-82
2023/07/31 10:04:08;;;;;;;7.75;2.33;;;;;;;;;;5060065;28;20021;-83
2023/07/31 10:06:34;;;;;;;5.38;2.17;;;;;;;;;;5054891;28;20025;-80
2023/07/31 10:09:00;;;;;;;568.42;333.50;;;;;;;;;;5039595;28;20111;-89
2023/07/31 10:11:27;;;;;;;18.70;10.07;;;;;;;;;;5056309;28;20032;-75
2023/07/31 10:13:53;;;;;;;7.45;2.55;;;;;;;;;;5053958;28;20128;-77
2023/07/31 10:16:20;;;;;;;4.88;2.13;;;;;;;;;;5052882;28;20108;-76
2023/07/31 10:18:46;;;;;;;6.95;2.67;;;;;;;;;;5053263;28;20585;-77
2023/07/31 10:21:12;;;;;;;6.20;2.30;;;;;;;;;;5053562;28;20036;-77
2023/07/31 10:23:38;;;;;;;6.13;2.17;;;;;;;;;;5054595;28;20044;-75
2023/07/31 10:26:06;;;;;;;10.05;2.60;;;;;;;;;;5053142;28;20479;-76
2023/07/31 10:28:32;;;;;;;6.38;1.98;;;;;;;;;;5053076;28;20033;-78
2023/07/31 10:30:58;;;;;;;7.47;2.28;;;;;;;;;;5053097;28;20045;-76
2023/07/31 10:33:24;;;;;;;7.30;2.58;;;;;;;;;;5036374;28;20083;-79
2023/07/31 10:35:53;;;;;;;6.18;2.25;;;;;;;;;;5032728;28;20124;-76
2023/07/31 10:38:18;;;;;;;5.88;2.17;;;;;;;;;;5020178;28;20115;-77
2023/07/31 10:40:45;;;;;;;6.68;2.00;;;;;;;;;;5036293;28;20488;-77
2023/07/31 10:43:23;;;;;;;5.18;2.45;;;;;;;;;;5045159;28;20213;-78
2023/07/31 10:45:48;;;;;;;5.68;2.45;;;;;;;;;;5016212;28;20067;-79
2023/07/31 10:48:14;;;;;;;8.07;2.35;;;;;;;;;;5049048;28;20111;-76
2023/07/31 10:50:54;;;;;;;6.70;2.47;;;;;;;;;;5053733;28;20029;-78
2023/07/31 10:53:23;;;;;;;5.13;1.95;;;;;;;;;;5052959;28;20106;-76
2023/07/31 10:55:51;;;;;;;6.30;2.30;;;;;;;;;;5052134;28;20037;-77
2023/07/31 10:58:18;;;;;;;8.05;2.25;;;;;;;;;;5052435;28;20037;-77
2023/07/31 11:00:44;;;;;;;9.07;2.53;;;;;;;;;;5052255;28;20102;-79
2023/07/31 11:03:12;;;;;;;7.90;2.17;;;;;;;;;;5050333;28;20029;-80
2023/07/31 11:05:40;;;;;;;5.97;2.40;;;;;;;;;;5036209;28;20564;-78
2023/07/31 11:08:06;;;;;;;;;;;;;;;;;;5033638;28;20481;-77
2023/07/31 11:10:31;;;;;;;6.47;2.40;;;;;;;;;;5024268;28;19915;-77
2023/07/31 11:12:56;;;;;;;5.43;2.10;;;;;;;;;;5036595;28;20418;-80
2023/07/31 11:15:22;;;;;;;7.63;2.67;;;;;;;;;;5049186;28;20029;-78
2023/07/31 11:17:47;;;;;;;5.85;2.00;;;;;;;;;;5041280;28;20301;-77
2023/07/31 11:20:13;;;;;;;6.22;2.13;;;;;;;;;;5045844;28;20033;-76
2023/07/31 11:22:38;;;;;;;9.60;2.42;;;;;;;;;;5032640;28;20022;-79
2023/07/31 11:25:04;;;;;;;9.30;2.30;;;;;;;;;;5032802;28;20408;-75
2023/07/31 11:27:30;;;;;;;5.05;1.92;;;;;;;;;;5031713;28;20488;-77
2023/07/31 11:30:02;;;;;;;6.25;2.00;;;;;;;;;;5031845;28;20033;-78
2023/07/31 11:32:28;;;;;;;5.88;2.95;;;;;;;;;;5042525;28;20526;-79
2023/07/31 11:34:54;;;;;;;6.78;2.25;;;;;;;;;;5052697;28;20033;-78
2023/07/31 11:37:19;;;;;;;5.55;2.05;;;;;;;;;;5052894;28;20025;-78
2023/07/31 11:39:58;;;;;;;6.60;2.50;;;;;;;;;;5052913;28;20067;-76
2023/07/31 11:42:24;;;;;;;5.93;2.25;;;;;;;;;;5052597;28;20024;-77
2023/07/31 11:44:49;;;;;;;6.57;2.28;;;;;;;;;;5038601;28;20026;-75
2023/07/31 11:47:16;;;;;;;6.35;2.40;;;;;;;;;;5031321;28;20481;-77
2023/07/31 11:49:42;;;;;;;5.45;2.22;;;;;;;;;;5032536;28;20060;-77
2023/07/31 11:52:07;;;;;;;5.35;2.03;;;;;;;;;;5032790;28;20527;-76
2023/07/31 11:54:33;;;;;;;5.78;2.65;;;;;;;;;;5014548;28;20580;-77
2023/07/31 11:57:01;;;;;;;4.20;2.05;;;;;;;;;;5031084;28;20067;-76
2023/07/31 11:59:26;;;;;;;6.22;2.38;;;;;;;;;;5031226;28;20056;-77
2023/07/31 12:01:53;;;;;;;8.75;2.78;;;;;;;;;;5014796;28;20061;-77
2023/07/31 12:04:19;;;;;;;12.60;2.47;;;;;;;;;;5032184;28;20036;-78
2023/07/31 12:06:45;;;;;;;6.85;2.50;;;;;;;;;;5032185;28;20472;-76
2023/07/31 12:09:10;;;;;;;8.70;2.38;;;;;;;;;;5032388;28;20036;-76
2023/07/31 12:11:45;;;;;;;4.43;1.90;;;;;;;;;;5030854;28;20029;-77
2023/07/31 12:14:20;;;;;;;7.68;2.83;;;;;;;;;;5033083;28;20554;-76
2023/07/31 12:16:45;;;;;;;5.00;2.22;;;;;;;;;;5036327;28;20037;-77
2023/07/31 12:19:11;;;;;;;11.68;2.40;;;;;;;;;;5031967;28;20492;-77
2023/07/31 12:21:37;;;;;;;9.85;3.00;;;;;;;;;;5016806;28;20028;-76
2023/07/31 12:24:03;;;;;;;6.85;2.63;;;;;;;;;;5033199;28;20018;-77
2023/07/31 12:26:34;;;;;;;4.97;2.58;;;;;;;;;;5034380;28;20033;-77
2023/07/31 12:28:59;;;;;;;8.65;2.58;;;;;;;;;;5038019;28;20068;-76
2023/07/31 12:31:27;;;;;;;10.93;3.42;;;;;;;;;;5043210;28;20033;-78
2023/07/31 12:33:52;;;;;;;8.70;2.87;;;;;;;;;;5064026;28;20033;-78
2023/07/31 12:36:22;;;;;;;7.40;2.72;;;;;;;;;;5065130;28;20033;-76
2023/07/31 12:38:49;;;;;;;7.30;3.42;;;;;;;;;;5063294;28;20033;-77
2023/07/31 12:41:15;;;;;;;10.85;2.75;;;;;;;;;;5058826;28;20053;-75
2023/07/31 12:43:41;;;;;;;5.47;2.58;;;;;;;;;;5047382;28;20502;-76
2023/07/31 12:46:09;;;;;;;6.88;2.70;;;;;;;;;;5030665;28;20061;-78
2023/07/31 12:48:35;;;;;;;6.78;2.22;;;;;;;;;;5031813;28;20033;-77
2023/07/31 12:51:01;;;;;;;6.45;2.35;;;;;;;;;;5048393;28;20029;-76
2023/07/31 12:53:27;;;;;;;6.38;2.60;;;;;;;;;;5050708;28;20475;-76
2023/07/31 12:55:53;;;;;;;7.72;2.58;;;;;;;;;;5050263;28;20079;-77
2023/07/31 12:58:18;;;;;;;6.72;2.53;;;;;;;;;;5052949;28;20111;-78
2023/07/31 13:00:44;;;;;;;6.80;2.40;;;;;;;;;;5055982;28;20032;-77
2023/07/31 13:03:09;;;;;;;7.97;2.70;;;;;;;;;;5055395;28;20086;-77
2023/07/31 13:05:36;;;;;;;6.78;2.47;;;;;;;;;;5054422;28;20056;-77
2023/07/31 13:08:01;;;;;;;7.65;2.83;;;;;;;;;;5052077;28;20029;-76
2023/07/31 13:10:28;;;;;;;5.95;2.75;;;;;;;;;;5035916;28;20140;-75
2023/07/31 13:12:54;;;;;;;6.53;2.90;;;;;;;;;;5034366;28;20033;-77
2023/07/31 13:15:19;;;;;;;5.55;2.53;;;;;;;;;;5037129;28;20026;-77
2023/07/31 13:17:45;;;;;;;8.85;2.70;;;;;;;;;;5054091;28;20052;-75
2023/07/31 13:20:11;;;;;;;8.68;2.47;;;;;;;;;;5055231;28;20031;-76
2023/07/31 13:22:36;;;;;;;6.35;2.40;;;;;;;;;;5055149;28;20025;-74
2023/07/31 13:25:02;;;;;;;6.53;2.97;;;;;;;;;;5055241;28;20456;-75
2023/07/31 13:27:29;;;;;;;5.70;2.47;;;;;;;;;;5037311;28;20025;-76
2023/07/31 13:29:55;;;;;;;6.07;2.30;;;;;;;;;;5054935;28;20104;-76
2023/07/31 13:32:20;;;;;;;5.75;1.90;;;;;;;;;;5054865;28;20036;-77
2023/07/31 13:34:46;;;;;;;4.45;2.00;;;;;;;;;;5054943;28;20025;-77
2023/07/31 13:37:12;;;;;;;3.85;1.75;;;;;;;;;;5035619;28;20060;-77
2023/07/31 13:39:38;;;;;;;5.30;2.10;;;;;;;;;;5038154;28;20060;-77
2023/07/31 13:42:07;;;;;;;5.93;1.80;;;;;;;;;;5034941;28;20025;-75
2023/07/31 13:44:33;;;;;;;5.40;2.00;;;;;;;;;;5034460;28;20032;-75
2023/07/31 13:46:59;;;;;;;7.18;2.15;;;;;;;;;;5033432;28;20033;-77
2023/07/31 13:49:25;;;;;;;4.30;1.92;;;;;;;;;;5038947;28;20020;-77
2023/07/31 13:51:50;;;;;;;10.02;2.45;;;;;;;;;;5054824;28;20488;-75
2023/07/31 13:54:16;;;;;;;7.47;1.85;;;;;;;;;;5054543;28;20033;-78
2023/07/31 13:56:42;;;;;;;9.40;3.22;;;;;;;;;;5054423;28;20025;-78
2023/07/31 13:59:08;;;;;;;5.63;2.53;;;;;;;;;;5053248;28;20029;-77
2023/07/31 14:01:33;;;;;;;6.43;2.22;;;;;;;;;;5054460;28;20028;-77
2023/07/31 14:03:59;;;;;;;7.22;2.67;;;;;;;;;;5052901;28;20027;-75
2023/07/31 14:23:23;;;;;;;6.75;2.30;;;;;;;;;;5488389;23;20418;-78
2023/07/31 14:25:48;;;;;;;;;;;;;;;;;;4917197;29;20111;-76
2023/07/31 14:28:14;;;;;;;6.00;2.38;;;;;;;;;;4936700;29;20010;-75
2023/07/31 14:30:39;;;;;;;3.97;2.03;;;;;;;;;;4916423;29;20490;-75
2023/07/31 14:33:05;;;;;;;4.25;2.03;;;;;;;;;;4916878;29;20028;-78
2023/07/31 14:35:30;;;;;;;5.50;1.90;;;;;;;;;;4927778;29;20063;-78
2023/07/31 14:37:56;;;;;;;9.32;2.28;;;;;;;;;;4958447;23;20056;-78
2023/07/31 14:40:23;;;;;;;4.65;1.98;;;;;;;;;;4904302;29;20095;-80
2023/07/31 14:42:49;;;;;;;4.13;1.92;;;;;;;;;;4889029;29;20132;-78
2023/07/31 14:45:15;;;;;;;3.67;2.00;;;;;;;;;;4920794;29;20055;-78
2023/07/31 14:47:44;;;;;;;;;;;;;;;;;;4903927;29;20096;-78
2023/07/31 14:50:10;;;;;;;3.85;1.70;;;;;;;;;;4913354;29;19915;-78
2023/07/31 14:52:36;;;;;;;7.22;2.05;;;;;;;;;;4917356;29;20028;-77
2023/07/31 14:55:10;;;;;;;3.70;1.80;;;;;;;;;;4891751;29;20107;-78